Tropical Cyclones
[Index]
Main Index Home Page Stock Weather Photos Extreme Storms Discussion Storm News and Storm Chasing Reports Tropical Cyclones / Hurricanes / Typhoons Weather Data and Links Wild Fires / Bushfires Weather Observation Techniques Weather Picture Catalogue Tornado Pictures and Reports Stock Video Footage and DVDs for sale
Season 1980-1981 Tropical Cyclone FLORINE Track Map
Season 1980-1981 Summaries: [BoM-AU] [JTWC-AU] [JTWC-SIO] [JTWC-SPAC] [JTWC-SH]
<<- Previous TC | JTWC 1980-1981 Season | Next TC ->>

click for intensity scale information  Lat/long Grid: Show Hide

 Date Labels: Show Hide

Joint Typhoon Warning Centre Cyclone Data

Name: FLORINE

04 Jan 1981 00:00 UTC to 10 Jan 1981 12:00 UTC

    date/time    lat    long     hPa   cat  kts
1981-01-04 00   10.6    60.2                  25          
1981-01-04 06   10.6    60.0                  25          
1981-01-04 12   11.0    60.2                  25          
1981-01-04 18   11.7    60.9                  25          
1981-01-05 00   12.5    61.5                  30          
1981-01-05 06   13.5    61.6                  35          
1981-01-05 12   14.5    61.2            1     40          
1981-01-05 18   15.3    60.5            1     45          
1981-01-06 00   16.1    59.7            2     55          
1981-01-06 06   16.8    58.9            2     65          
1981-01-06 12   17.5    58.1            3     80          
1981-01-06 18   18.3    57.3            3     90          
1981-01-07 00   19.2    56.5            4    100          
1981-01-07 06   19.9    56.1            4    105          
1981-01-07 12   20.6    56.0            4    100          
1981-01-07 18   21.5    56.0            3     90          
1981-01-08 00   22.4    56.2            3     80          
1981-01-08 06   23.2    56.8            3     80          
1981-01-08 12   24.0    57.4            3     75          
1981-01-08 18   24.8    57.7            2     65          
1981-01-09 00   25.7    57.9            2     60          
1981-01-09 06   26.5    57.9            2     60          
1981-01-09 12   27.3    57.9            2     55          
1981-01-09 18   28.4    58.0            1     50          
1981-01-10 00   29.9    58.4            1     45          
1981-01-10 06   31.4    59.5            1     40          
1981-01-10 12   33.1    61.3                  30          
Winds are 1-min average.

Tropical cyclone tracks developed by Michael Bath using data from the Joint Typhoon Warning Centre Best Tracks and Google Maps.


[Australian Severe Weather index] [Copyright Notice] [Email Contacts] [Search This Site] [Privacy Policy]
Document: tropical_cyclone_florine.htm Updated: 18 September 2016